Time;durP1;ratioP1;P1;durP2;ratioP2;P2;SDS_P1;SDS_P2;PMS_P1;PMS_P2;Temp;Humidity;BMP_temperature;BMP_pressure;BME280_temperature;BME280_humidity;BME280_pressure;Samples;Min_cycle;Max_cycle;Signal;HPM_P1;HPM_P2
2023/07/20 00:01:47;;;;;;;9.40;4.70;;;;;;;16.08;77.68;98244.48;105940;1251;61115;-23
2023/07/20 00:04:14;;;;;;;7.00;4.40;;;;;;;16.15;77.08;98239.16;106048;1251;73752;-23
2023/07/20 00:06:42;;;;;;;7.90;4.40;;;;;;;16.02;77.32;98236.21;105873;1252;74146;-23
2023/07/20 00:09:08;;;;;;;6.80;3.90;;;;;;;15.81;78.00;98232.65;105889;1252;72531;-23
2023/07/20 00:11:40;;;;;;;6.90;4.50;;;;;;;15.58;78.69;98237.22;105898;1254;61115;-23
2023/07/20 00:14:07;;;;;;;4.50;3.90;;;;;;;15.40;79.90;98234.98;105857;1256;61142;-23
2023/07/20 00:16:38;;;;;;;6.10;4.00;;;;;;;15.85;79.24;98236.92;105890;1251;73749;-23
2023/07/20 00:19:06;;;;;;;7.50;4.70;;;;;;;16.35;76.39;98240.57;105814;1254;74853;-23
2023/07/20 00:21:34;;;;;;;6.50;4.40;;;;;;;16.37;75.44;98237.95;106024;1254;72453;-23
2023/07/20 00:24:01;;;;;;;11.50;7.40;;;;;;;16.13;75.48;98237.08;105844;1252;61146;-23
2023/07/20 00:26:28;;;;;;;10.20;7.60;;;;;;;15.87;76.62;98237.80;106006;1254;61079;-23
2023/07/20 00:28:55;;;;;;;8.40;5.90;;;;;;;15.64;77.58;98239.56;106018;1252;74439;-24
2023/07/20 00:31:22;;;;;;;5.60;3.80;;;;;;;15.44;78.29;98236.19;106016;1252;74919;-23
2023/07/20 00:33:49;;;;;;;8.00;3.90;;;;;;;15.79;78.73;98241.46;106059;1251;72553;-24
2023/07/20 00:36:16;;;;;;;6.70;5.50;;;;;;;16.23;76.51;98243.05;105867;1253;61152;-23
2023/07/20 00:38:43;;;;;;;6.90;4.30;;;;;;;16.23;75.68;98242.59;105807;1257;61083;-23
2023/07/20 00:41:10;;;;;;;5.90;3.40;;;;;;;15.95;75.48;98244.38;106024;1251;74369;-23
2023/07/20 00:43:36;;;;;;;4.90;3.60;;;;;;;15.62;76.97;98238.60;105895;1257;74187;-24
2023/07/20 00:46:03;;;;;;;4.60;3.50;;;;;;;15.43;78.03;98240.40;105976;1252;72295;-23
2023/07/20 00:48:31;;;;;;;3.20;2.50;;;;;;;15.26;78.50;98238.14;105945;1251;61068;-24
2023/07/20 00:50:58;;;;;;;3.70;2.50;;;;;;;15.62;78.96;98240.46;105775;1259;61154;-23
2023/07/20 00:53:27;;;;;;;3.10;2.80;;;;;;;16.19;77.96;98238.30;105805;1252;73667;-23
2023/07/20 00:55:54;;;;;;;5.90;3.30;;;;;;;16.34;77.31;98237.73;105776;1254;74847;-23
2023/07/20 00:58:21;;;;;;;5.90;2.90;;;;;;;16.26;76.58;98235.07;105560;1254;73167;-23
2023/07/20 01:00:48;;;;;;;5.20;3.10;;;;;;;16.06;76.21;98239.45;105777;1254;61099;-24
2023/07/20 01:03:15;;;;;;;5.90;3.00;;;;;;;15.87;76.81;98237.11;105763;1254;61173;-23
2023/07/20 01:06:09;;;;;;;4.50;2.20;;;;;;;15.70;77.79;98236.35;105921;1252;73774;-23
2023/07/20 01:09:01;;;;;;;4.00;2.40;;;;;;;16.24;77.96;98234.39;105997;1252;74119;-23
2023/07/20 01:11:39;;;;;;;3.80;2.40;;;;;;;16.71;76.20;98238.27;105909;1252;72682;-24
2023/07/20 01:14:06;;;;;;;5.10;2.70;;;;;;;16.66;75.39;98238.01;105720;1255;61229;-22
2023/07/20 01:16:34;;;;;;;8.10;2.80;;;;;;;16.49;75.73;98234.60;105937;1256;61223;-23
2023/07/20 01:19:01;;;;;;;4.90;3.30;;;;;;;16.29;76.55;98234.63;105987;1252;73667;-23
2023/07/20 01:21:37;;;;;;;4.60;3.00;;;;;;;16.04;77.22;98240.39;105857;1257;74216;-23
2023/07/20 01:24:15;;;;;;;3.50;2.00;;;;;;;15.79;79.12;98244.67;105650;1254;72637;-23
2023/07/20 01:27:11;;;;;;;8.50;2.60;;;;;;;16.20;79.19;98244.09;105593;1252;61017;-23
2023/07/20 01:29:55;;;;;;;6.60;2.60;;;;;;;16.68;77.18;98250.39;105948;1257;61153;-23
2023/07/20 01:32:23;;;;;;;10.60;3.20;;;;;;;16.62;77.11;98246.89;105706;1251;74427;-22
2023/07/20 01:34:52;;;;;;;7.80;3.00;;;;;;;16.38;78.24;98251.67;105668;1251;74251;-22
2023/07/20 01:37:20;;;;;;;7.20;2.90;;;;;;;16.09;79.17;98251.30;105987;1252;72618;-22
2023/07/20 01:39:47;;;;;;;15.10;3.40;;;;;;;15.84;80.58;98245.48;105555;1259;61256;-22
2023/07/20 01:42:14;;;;;;;7.10;2.40;;;;;;;15.78;81.52;98242.33;105872;1254;61096;-22
2023/07/20 01:44:41;;;;;;;5.40;2.50;;;;;;;16.33;81.39;98242.92;105673;1252;73882;-23
2023/07/20 01:47:08;;;;;;;7.40;2.30;;;;;;;16.90;79.23;98236.90;105755;1252;73934;-23
2023/07/20 01:49:35;;;;;;;3.50;2.40;;;;;;;16.93;77.70;98234.83;105913;1254;73244;-22
2023/07/20 01:52:02;;;;;;;6.00;2.20;;;;;;;16.74;77.33;98234.05;105921;1251;61175;-22
2023/07/20 01:54:30;;;;;;;11.50;2.90;;;;;;;16.50;77.94;98242.24;105927;1251;61172;-22
2023/07/20 01:56:57;;;;;;;5.90;2.60;;;;;;;16.19;79.15;98245.09;106004;1252;73609;-22
2023/07/20 01:59:24;;;;;;;6.10;2.40;;;;;;;15.95;80.09;98242.16;105933;1257;74377;-22
2023/07/20 02:02:39;;;;;;;4.20;2.00;;;;;;;16.36;79.88;98246.07;106022;1252;72686;-22
2023/07/20 02:05:06;;;;;;;;;;;;;;;16.84;77.92;98232.05;105754;1251;61164;-22
2023/07/20 02:07:34;;;;;;;3.20;2.00;;;;;;;16.86;77.65;98233.89;105825;1250;61140;-22
2023/07/20 02:10:00;;;;;;;5.60;2.20;;;;;;;16.71;78.02;98232.35;105970;1254;74318;-22
2023/07/20 02:12:28;;;;;;;4.80;2.30;;;;;;;16.51;78.13;98234.15;105770;1252;74142;-22
2023/07/20 02:14:55;;;;;;;4.60;2.30;;;;;;;16.29;78.82;98227.96;105787;1255;73236;-22
2023/07/20 02:17:22;;;;;;;4.70;1.60;;;;;;;16.16;79.52;98224.84;105600;1255;61828;-22
2023/07/20 02:19:53;;;;;;;2.20;1.40;;;;;;;16.63;79.92;98221.02;105803;1254;61167;-23
2023/07/20 02:22:21;;;;;;;6.30;1.90;;;;;;;17.19;78.17;98215.60;105608;1252;73821;-23
2023/07/20 02:24:49;;;;;;;6.10;1.80;;;;;;;17.19;77.61;98217.45;105605;1252;74170;-23
2023/07/20 02:27:16;;;;;;;3.20;2.00;;;;;;;16.90;78.22;98219.21;105672;1255;72794;-22
2023/07/20 02:29:43;;;;;;;3.30;2.40;;;;;;;16.55;79.51;98220.77;105553;1252;61083;-22
2023/07/20 02:32:11;;;;;;;5.00;2.30;;;;;;;16.46;78.50;98220.02;105917;1257;61172;-22
2023/07/20 02:34:39;;;;;;;5.10;1.70;;;;;;;16.46;78.71;98219.23;105914;1252;73873;-22
2023/07/20 02:37:06;;;;;;;2.40;1.70;;;;;;;16.97;79.25;98217.98;105835;1252;74340;-23
2023/07/20 02:39:33;;;;;;;3.00;2.00;;;;;;;17.52;76.69;98218.35;105437;1259;71555;-22
2023/07/20 02:42:00;;;;;;;6.60;2.20;;;;;;;17.50;74.73;98217.23;105865;1254;61051;-22
2023/07/20 02:44:28;;;;;;;5.00;1.80;;;;;;;17.40;75.72;98221.08;105941;1251;61093;-22
2023/07/20 02:46:56;;;;;;;5.20;2.30;;;;;;;17.19;75.10;98220.30;106004;1251;73793;-23
2023/07/20 02:49:23;;;;;;;3.70;2.40;;;;;;;16.97;76.06;98219.77;105809;1257;74578;-23
2023/07/20 02:51:50;;;;;;;2.70;1.70;;;;;;;16.77;77.22;98217.70;105831;1256;72568;-23
2023/07/20 02:54:16;;;;;;;3.10;2.10;;;;;;;17.18;76.78;98215.91;105848;1251;61152;-23
2023/07/20 02:56:46;;;;;;;2.90;2.20;;;;;;;17.52;75.63;98212.80;105975;1254;61055;-23
2023/07/20 02:59:13;;;;;;;4.20;1.70;;;;;;;17.56;75.01;98214.70;105812;1258;73803;-23
2023/07/20 03:01:42;;;;;;;3.20;1.90;;;;;;;17.33;75.78;98215.84;105687;1252;74908;-23
2023/07/20 03:04:12;;;;;;;4.80;2.00;;;;;;;17.10;76.14;98217.25;105961;1251;73031;-23
2023/07/20 03:06:41;;;;;;;4.30;2.30;;;;;;;16.80;77.24;98228.13;105718;1251;61140;-23
2023/07/20 03:09:09;;;;;;;5.70;1.80;;;;;;;16.61;78.11;98233.57;105865;1256;61096;-23
2023/07/20 03:11:36;;;;;;;6.00;1.70;;;;;;;17.05;78.13;98224.88;105749;1257;72568;-23
2023/07/20 03:14:03;;;;;;;3.20;2.10;;;;;;;17.56;76.06;98229.27;105775;1257;74138;-24
2023/07/20 03:16:32;;;;;;;4.70;2.10;;;;;;;17.61;75.75;98229.42;105946;1251;72645;-23
2023/07/20 03:19:00;;;;;;;4.20;2.50;;;;;;;17.43;75.62;98229.77;105904;1254;61073;-23
2023/07/20 03:21:28;;;;;;;4.80;2.20;;;;;;;17.18;76.08;98224.10;105943;1253;61090;-23
2023/07/20 03:23:55;;;;;;;6.80;2.40;;;;;;;16.91;76.53;98220.73;105901;1251;73770;-23
2023/07/20 03:26:23;;;;;;;3.30;1.50;;;;;;;16.73;78.07;98222.80;105685;1256;74188;-24
2023/07/20 03:28:50;;;;;;;4.50;2.20;;;;;;;17.13;78.04;98226.29;105739;1255;72547;-23
2023/07/20 03:31:17;;;;;;;2.40;1.80;;;;;;;17.51;76.84;98223.08;105746;1252;61054;-24
2023/07/20 03:33:45;;;;;;;6.30;3.10;;;;;;;17.62;76.34;98217.33;105719;1256;61176;-23
2023/07/20 03:36:12;;;;;;;4.00;2.30;;;;;;;17.47;76.42;98219.48;105931;1258;73578;-23
2023/07/20 03:38:39;;;;;;;6.00;3.20;;;;;;;17.21;76.90;98221.61;105778;1257;74361;-23
2023/07/20 03:41:06;;;;;;;5.50;2.40;;;;;;;16.93;78.10;98233.60;105756;1251;72612;-24
2023/07/20 03:43:33;;;;;;;2.80;2.00;;;;;;;16.58;80.11;98239.41;105943;1253;61964;-24
2023/07/20 03:46:00;;;;;;;4.70;2.30;;;;;;;16.91;80.70;98238.88;105466;1261;61208;-23
2023/07/20 03:48:27;;;;;;;7.30;2.30;;;;;;;17.47;78.70;98225.87;105965;1254;73750;-23
2023/07/20 03:50:55;;;;;;;3.40;2.40;;;;;;;17.60;77.53;98214.36;105917;1254;74271;-23
2023/07/20 03:53:21;;;;;;;5.10;3.00;;;;;;;17.52;77.38;98207.02;105947;1257;72522;-23
2023/07/20 03:55:49;;;;;;;6.60;4.40;;;;;;;17.38;77.72;98206.73;105966;1257;61135;-24
2023/07/20 03:58:17;;;;;;;8.00;4.40;;;;;;;17.24;78.05;98209.20;105682;1260;61156;-23
2023/07/20 04:00:51;;;;;;;4.60;1.80;;;;;;;17.14;78.73;98213.61;105938;1257;73699;-23
2023/07/20 04:03:18;;;;;;;6.30;2.00;;;;;;;17.56;79.02;98216.07;105773;1257;73186;-23
2023/07/20 04:05:47;;;;;;;3.80;2.00;;;;;;;18.08;77.45;98208.49;105692;1258;71560;-24
2023/07/20 04:08:14;;;;;;;5.20;2.60;;;;;;;18.18;76.01;98206.73;105596;1258;61068;-24
2023/07/20 04:10:44;;;;;;;4.10;2.20;;;;;;;18.07;76.03;98202.49;105919;1255;61160;-23
2023/07/20 04:13:11;;;;;;;2.50;1.70;;;;;;;17.88;76.32;98201.25;105744;1258;73818;-23
2023/07/20 04:15:38;;;;;;;4.00;2.40;;;;;;;17.71;76.22;98200.45;105990;1256;74175;-23
2023/07/20 04:18:05;;;;;;;3.60;2.00;;;;;;;17.57;76.52;98193.85;105909;1254;73643;-24
2023/07/20 04:20:33;;;;;;;4.20;2.00;;;;;;;17.99;76.82;98188.94;105894;1253;61089;-23
2023/07/20 04:23:00;;;;;;;9.70;4.60;;;;;;;18.43;75.10;98188.95;105962;1254;61124;-24
2023/07/20 04:25:27;;;;;;;20.60;11.90;;;;;;;18.15;76.04;98185.88;105985;1256;73622;-23
2023/07/20 04:27:55;;;;;;;16.30;9.80;;;;;;;18.21;76.49;98181.33;105755;1252;74201;-23
2023/07/20 04:30:22;;;;;;;20.30;12.80;;;;;;;18.43;75.87;98182.60;105557;1254;72633;-23
2023/07/20 04:32:50;;;;;;;28.70;16.40;;;;;;;18.71;75.41;98180.77;105984;1255;61130;-24
2023/07/20 04:35:45;;;;;;;56.20;32.10;;;;;;;19.02;75.50;98179.91;105865;1257;61163;-24
2023/07/20 04:38:17;;;;;;;63.90;37.70;;;;;;;20.02;71.59;98178.10;105981;1255;73732;-24
2023/07/20 04:40:45;;;;;;;27.30;15.40;;;;;;;20.78;68.11;98173.20;105725;1257;73127;-23
2023/07/20 04:43:15;;;;;;;22.60;11.40;;;;;;;21.13;66.57;98170.41;105585;1260;72634;-24
2023/07/20 04:45:42;;;;;;;26.40;10.40;;;;;;;21.31;66.50;98173.86;105770;1255;61221;-24
2023/07/20 04:48:11;;;;;;;21.10;12.60;;;;;;;21.41;65.41;98171.86;105876;1257;61178;-23
2023/07/20 04:50:47;;;;;;;20.60;13.00;;;;;;;21.38;65.45;98176.70;105640;1251;73908;-23
2023/07/20 04:53:14;;;;;;;23.90;10.80;;;;;;;21.41;66.48;98181.72;105730;1257;72991;-23
2023/07/20 04:55:54;;;;;;;19.00;11.60;;;;;;;21.61;66.23;98179.49;105916;1257;73130;-24
2023/07/20 04:58:23;;;;;;;17.40;11.40;;;;;;;21.86;64.91;98178.45;105763;1260;61169;-24
2023/07/20 05:00:51;;;;;;;22.40;12.50;;;;;;;21.93;64.25;98179.81;105943;1266;61218;-23
2023/07/20 05:03:18;;;;;;;19.90;9.90;;;;;;;22.15;63.71;98184.77;105943;1256;73570;-23
2023/07/20 05:05:49;;;;;;;16.20;8.30;;;;;;;22.24;63.13;98182.01;105948;1257;74487;-23
2023/07/20 05:08:17;;;;;;;12.40;7.20;;;;;;;22.13;62.73;98187.28;105979;1255;72460;-24
2023/07/20 05:10:46;;;;;;;10.00;6.90;;;;;;;22.03;62.90;98190.00;105750;1256;61252;-24
2023/07/20 05:13:12;;;;;;;9.20;5.70;;;;;;;22.04;63.29;98189.29;105673;1256;61157;-24
2023/07/20 05:15:41;;;;;;;8.80;4.80;;;;;;;21.98;63.51;98190.14;105934;1251;74121;-23
2023/07/20 05:18:12;;;;;;;8.40;4.30;;;;;;;22.03;62.48;98185.56;105772;1257;74610;-23
2023/07/20 05:20:40;;;;;;;7.50;3.60;;;;;;;22.02;63.36;98188.39;105979;1251;72587;-23
2023/07/20 05:23:07;;;;;;;6.80;3.60;;;;;;;22.07;62.43;98194.61;105953;1251;61105;-23
2023/07/20 05:25:35;;;;;;;6.10;3.40;;;;;;;22.09;62.15;98192.66;105908;1256;61230;-23
2023/07/20 05:28:02;;;;;;;10.40;3.80;;;;;;;22.35;62.57;98194.63;105636;1251;73818;-23
2023/07/20 05:30:29;;;;;;;5.00;3.20;;;;;;;22.71;62.38;98195.81;105869;1255;74300;-23
2023/07/20 05:32:56;;;;;;;7.10;2.90;;;;;;;23.06;61.31;98194.63;105929;1255;72401;-23
2023/07/20 05:35:23;;;;;;;9.80;2.80;;;;;;;23.37;58.00;98194.19;105882;1251;61130;-23
2023/07/20 05:37:50;;;;;;;5.90;2.80;;;;;;;23.34;57.40;98198.11;105742;1254;61102;-24
2023/07/20 05:40:20;;;;;;;5.70;4.50;;;;;;;23.50;58.46;98196.75;105846;1255;73916;-23
2023/07/20 05:42:48;;;;;;;8.40;7.40;;;;;;;23.70;55.78;98199.02;105843;1257;74483;-23
2023/07/20 05:45:15;;;;;;;7.60;6.10;;;;;;;23.85;55.63;98199.40;105910;1251;72564;-23
2023/07/20 05:47:43;;;;;;;9.90;6.00;;;;;;;23.98;55.12;98196.66;105816;1256;61130;-23
2023/07/20 05:50:10;;;;;;;9.50;5.40;;;;;;;24.14;53.10;98190.51;105849;1254;61118;-23
2023/07/20 05:52:38;;;;;;;5.80;4.80;;;;;;;24.30;53.74;98187.85;105846;1256;73780;-23
2023/07/20 05:55:06;;;;;;;7.70;5.60;;;;;;;24.32;54.15;98187.36;105705;1260;74101;-22
2023/07/20 05:57:33;;;;;;;9.60;5.50;;;;;;;24.44;55.88;98179.60;105790;1251;71443;-23
2023/07/20 06:00:19;;;;;;;11.30;4.50;;;;;;;24.60;55.63;98179.91;105964;1252;61042;-23
2023/07/20 06:02:48;;;;;;;5.80;2.70;;;;;;;24.65;53.23;98178.56;105673;1260;61934;-23
2023/07/20 06:05:15;;;;;;;5.50;2.50;;;;;;;24.71;52.14;98176.45;105900;1251;73810;-23
2023/07/20 06:07:43;;;;;;;4.20;2.30;;;;;;;24.87;51.53;98177.00;106008;1251;74609;-23
2023/07/20 06:10:10;;;;;;;5.40;2.20;;;;;;;25.00;50.38;98175.28;106013;1252;72506;-23
2023/07/20 06:12:39;;;;;;;4.30;2.30;;;;;;;25.07;50.28;98175.84;105895;1254;61172;-23
2023/07/20 06:15:07;;;;;;;3.00;2.10;;;;;;;25.15;49.89;98170.75;105816;1254;61147;-23
2023/07/20 06:17:34;;;;;;;4.10;2.90;;;;;;;25.22;50.26;98170.58;105734;1257;73701;-21
2023/07/20 06:20:02;;;;;;;3.80;2.90;;;;;;;25.36;51.11;98178.10;106030;1252;74370;-21
2023/07/20 06:22:29;;;;;;;4.50;2.80;;;;;;;25.29;51.80;98178.31;105993;1251;72489;-24
2023/07/20 06:24:56;;;;;;;11.10;2.60;;;;;;;25.23;51.46;98177.53;105771;1251;61531;-22
2023/07/20 06:27:24;;;;;;;6.30;2.20;;;;;;;25.04;52.87;98182.51;106008;1252;61048;-23
2023/07/20 06:29:51;;;;;;;6.50;2.80;;;;;;;25.15;51.63;98177.19;106020;1254;73767;-24
2023/07/20 06:32:17;;;;;;;8.00;2.70;;;;;;;25.26;51.78;98177.84;105938;1254;74338;-21
2023/07/20 06:34:44;;;;;;;3.70;2.50;;;;;;;25.39;52.62;98177.98;105904;1254;72317;-22
2023/07/20 06:37:11;;;;;;;5.20;2.80;;;;;;;25.58;52.12;98177.49;105784;1251;61023;-22
2023/07/20 06:39:38;;;;;;;3.70;2.60;;;;;;;25.89;52.30;98178.55;105766;1254;61052;-22
2023/07/20 06:42:08;;;;;;;9.10;5.50;;;;;;;26.27;51.25;98176.48;105537;1251;74309;-23
2023/07/20 06:44:35;;;;;;;10.20;7.10;;;;;;;26.22;47.71;98164.73;105968;1254;74109;-22
2023/07/20 06:47:02;;;;;;;6.70;4.80;;;;;;;25.88;48.14;98169.20;105876;1254;72651;-22
2023/07/20 06:49:29;;;;;;;8.20;3.50;;;;;;;25.84;49.57;98165.99;105791;1251;61066;-23
2023/07/20 06:51:56;;;;;;;5.50;3.70;;;;;;;25.69;49.75;98167.88;105936;1254;61090;-22
2023/07/20 06:54:24;;;;;;;8.70;3.50;;;;;;;25.52;50.52;98167.12;106034;1251;73865;-22
2023/07/20 06:56:51;;;;;;;7.10;3.10;;;;;;;25.23;50.48;98168.05;105997;1254;74269;-22
2023/07/20 06:59:38;;;;;;;7.60;2.80;;;;;;;25.13;51.34;98164.70;105917;1254;72575;-23
2023/07/20 07:02:08;;;;;;;6.00;4.30;;;;;;;25.09;50.82;98157.67;105663;1251;61137;-22
2023/07/20 07:04:41;;;;;;;4.30;2.40;;;;;;;24.91;50.85;98158.73;105877;1251;61160;-22
2023/07/20 07:07:09;;;;;;;3.70;2.60;;;;;;;24.89;51.45;98164.80;105950;1257;72503;-22
2023/07/20 07:09:36;;;;;;;28.60;25.10;;;;;;;24.85;51.87;98165.92;105910;1256;74807;-22
2023/07/20 07:12:05;;;;;;;14.70;12.60;;;;;;;24.72;51.83;98171.94;105656;1254;72847;-21
2023/07/20 07:14:32;;;;;;;6.40;4.70;;;;;;;24.67;52.03;98171.57;105699;1251;61155;-21
2023/07/20 07:26:46;;;;;;;3.30;2.20;;;;;;;25.01;50.89;98164.81;105975;1252;76127;-23
2023/07/20 07:29:13;;;;;;;3.40;2.80;;;;;;;25.07;50.44;98158.96;105926;1252;72600;-23
2023/07/20 07:31:40;;;;;;;5.50;2.40;;;;;;;25.35;52.09;98157.35;105873;1251;61118;-23
2023/07/20 07:34:08;;;;;;;9.00;4.40;;;;;;;25.78;52.20;98151.31;105933;1254;61092;-23
2023/07/20 07:36:35;;;;;;;7.10;2.90;;;;;;;26.08;51.94;98140.02;105853;1251;73856;-23
2023/07/20 07:39:02;;;;;;;8.30;2.70;;;;;;;26.55;50.03;98143.04;105889;1251;74615;-23
2023/07/20 07:41:49;;;;;;;4.80;2.60;;;;;;;26.67;49.96;98139.32;105787;1253;73100;-23
2023/07/20 07:44:17;;;;;;;4.60;2.50;;;;;;;26.99;49.39;98142.92;105967;1252;61064;-23
2023/07/20 07:46:44;;;;;;;11.30;5.20;;;;;;;27.34;47.55;98142.16;105741;1251;61061;-23
2023/07/20 07:49:12;;;;;;;7.50;2.80;;;;;;;27.42;47.28;98138.74;105800;1256;73882;-23
2023/07/20 07:51:39;;;;;;;4.60;2.50;;;;;;;27.65;46.62;98139.76;105798;1251;74843;-23
2023/07/20 07:54:06;;;;;;;7.20;5.00;;;;;;;27.61;45.59;98138.67;105864;1254;73174;-23
2023/07/20 07:56:33;;;;;;;3.70;3.30;;;;;;;27.55;44.18;98130.71;105877;1251;61108;-23
2023/07/20 07:59:00;;;;;;;3.30;2.40;;;;;;;27.30;43.17;98132.30;105745;1257;61262;-23
2023/07/20 08:01:27;;;;;;;5.20;3.00;;;;;;;27.22;44.57;98131.55;105983;1251;72850;-23
2023/07/20 08:03:54;;;;;;;5.40;2.60;;;;;;;27.17;43.79;98123.88;105847;1254;74226;-23
2023/07/20 08:06:21;;;;;;;3.10;2.30;;;;;;;27.29;45.42;98116.36;105765;1251;73000;-23
2023/07/20 08:08:49;;;;;;;5.10;2.20;;;;;;;27.64;45.17;98115.30;105625;1252;61149;-23
2023/07/20 08:11:17;;;;;;;3.80;2.20;;;;;;;27.93;45.01;98110.83;105835;1255;61163;-23
2023/07/20 08:13:45;;;;;;;4.40;2.40;;;;;;;28.19;44.45;98108.54;105656;1251;73605;-23
2023/07/20 08:16:12;;;;;;;3.90;2.60;;;;;;;28.39;42.75;98111.30;105934;1251;74344;-24
2023/07/20 08:18:39;;;;;;;5.10;2.30;;;;;;;28.37;42.73;98107.23;105560;1257;71552;-23
2023/07/20 08:21:06;;;;;;;7.10;2.80;;;;;;;28.62;42.90;98107.21;105745;1251;61039;-23
2023/07/20 08:23:33;;;;;;;5.80;4.10;;;;;;;28.76;41.51;98101.02;105751;1251;61127;-23
2023/07/20 08:26:01;;;;;;;6.30;3.20;;;;;;;28.58;41.68;98097.35;105924;1251;73862;-23
2023/07/20 08:28:29;;;;;;;4.00;2.30;;;;;;;28.72;42.50;98096.24;105753;1251;74251;-24
2023/07/20 08:30:56;;;;;;;5.10;2.10;;;;;;;28.96;42.12;98086.81;105820;1254;72971;-23
2023/07/20 08:33:24;;;;;;;21.20;15.10;;;;;;;28.81;39.24;98087.73;105890;1257;61052;-28
2023/07/20 08:35:51;;;;;;;8.10;5.10;;;;;;;28.39;41.16;98090.27;105929;1258;61802;-22
2023/07/20 08:38:17;;;;;;;10.70;5.50;;;;;;;28.51;39.94;98085.88;106024;1251;75501;-23
2023/07/20 08:40:45;;;;;;;5.50;5.00;;;;;;;28.27;39.35;98084.63;106012;1254;74271;-22
2023/07/20 08:43:14;;;;;;;4.10;3.70;;;;;;;28.11;39.07;98083.50;105629;1251;72536;-22
2023/07/20 08:45:41;;;;;;;3.60;2.30;;;;;;;28.29;41.51;98083.02;105553;1251;61093;-22
2023/07/20 08:48:09;;;;;;;5.30;2.40;;;;;;;28.74;40.81;98077.45;105688;1251;61144;-23
2023/07/20 08:50:36;;;;;;;3.00;2.10;;;;;;;29.20;39.86;98071.62;105513;1251;73878;-23
2023/07/20 08:53:03;;;;;;;3.70;2.60;;;;;;;29.57;38.55;98073.30;105932;1251;74280;-22
2023/07/20 08:55:30;;;;;;;7.90;6.90;;;;;;;28.80;36.38;98075.29;105981;1251;72429;-22
2023/07/20 08:57:58;;;;;;;5.60;3.70;;;;;;;27.95;38.59;98077.45;105807;1251;61056;-23
2023/07/20 09:00:26;;;;;;;3.70;2.00;;;;;;;27.87;39.61;98076.73;105671;1257;61228;-22
2023/07/20 09:02:54;;;;;;;4.10;2.30;;;;;;;28.04;39.14;98075.67;105708;1251;73709;-22
2023/07/20 09:05:22;;;;;;;4.20;3.20;;;;;;;27.54;39.21;98074.09;105786;1253;74301;-22
2023/07/20 09:07:49;;;;;;;9.80;8.80;;;;;;;27.59;40.08;98076.67;105747;1253;71706;-22
2023/07/20 09:10:17;;;;;;;4.40;3.70;;;;;;;28.01;41.27;98072.98;105945;1250;61101;-23
2023/07/20 09:12:44;;;;;;;3.50;3.20;;;;;;;28.17;40.38;98071.27;105880;1253;61103;-22
2023/07/20 09:15:11;;;;;;;4.20;3.20;;;;;;;28.21;39.85;98071.11;105918;1251;73842;-22
2023/07/20 09:17:39;;;;;;;5.30;3.90;;;;;;;27.98;39.67;98074.20;105697;1251;74205;-22
2023/07/20 09:20:10;;;;;;;2.80;2.30;;;;;;;27.93;40.02;98072.58;105963;1251;72682;-22
2023/07/20 09:22:39;;;;;;;18.90;17.30;;;;;;;28.06;39.25;98075.15;105684;1258;61185;-23
2023/07/20 09:25:16;;;;;;;14.30;10.80;;;;;;;28.00;40.92;98073.62;106025;1254;61228;-22
2023/07/20 09:27:45;;;;;;;5.20;3.20;;;;;;;28.57;40.99;98072.13;105703;1251;73871;-22
2023/07/20 09:30:15;;;;;;;6.80;4.40;;;;;;;29.11;39.81;98064.45;105764;1251;74015;-22
2023/07/20 09:32:50;;;;;;;6.30;5.70;;;;;;;29.14;37.39;98068.95;105935;1251;72659;-23
2023/07/20 09:35:21;;;;;;;5.50;3.40;;;;;;;28.76;38.40;98067.55;105750;1250;61157;-23
2023/07/20 09:38:00;;;;;;;4.10;3.50;;;;;;;28.53;38.12;98073.41;105921;1251;61134;-22
2023/07/20 09:40:30;;;;;;;4.70;3.30;;;;;;;28.31;38.95;98064.12;105757;1251;73740;-23
2023/07/20 09:43:00;;;;;;;27.50;24.90;;;;;;;27.96;39.30;98060.66;103757;1256;2954726;-22
2023/07/20 09:45:33;;;;;;;24.20;22.20;;;;;;;27.87;41.06;98055.02;105950;1256;72714;-22
2023/07/20 09:48:06;;;;;;;12.40;11.30;;;;;;;28.08;40.55;98061.35;105726;1260;61202;-22
2023/07/20 09:50:51;;;;;;;11.20;10.00;;;;;;;28.12;41.05;98057.40;105714;1259;61251;-22
2023/07/20 09:53:19;;;;;;;4.40;3.70;;;;;;;28.30;41.32;98050.53;105944;1251;73810;-22
2023/07/20 09:55:47;;;;;;;6.50;2.10;;;;;;;28.65;41.36;98045.79;105902;1251;74434;-23
2023/07/20 09:58:15;;;;;;;5.60;2.70;;;;;;;29.06;39.57;98037.58;105715;1257;71268;-23
2023/07/20 10:00:50;;;;;;;4.30;2.60;;;;;;;28.48;38.99;98041.55;105918;1256;61316;-23
2023/07/20 10:03:21;;;;;;;4.30;3.30;;;;;;;28.46;40.40;98043.05;105679;1259;61056;-23
2023/07/20 10:05:58;;;;;;;5.00;3.30;;;;;;;28.00;39.29;98049.43;105765;1251;72712;-23
2023/07/20 10:08:26;;;;;;;20.10;12.00;;;;;;;27.82;39.59;98050.19;105687;1251;74205;-23
2023/07/20 10:10:57;;;;;;;6.60;5.50;;;;;;;27.80;39.82;98044.99;105942;1257;72617;-23
2023/07/20 10:13:28;;;;;;;2.80;2.40;;;;;;;27.48;39.90;98039.09;105733;1257;61272;-23
2023/07/20 10:16:05;;;;;;;4.90;3.10;;;;;;;27.69;40.57;98042.08;105746;1251;61105;-23
2023/07/20 10:18:41;;;;;;;20.10;18.20;;;;;;;27.54;39.83;98043.50;105762;1259;73811;-23
2023/07/20 10:21:08;;;;;;;11.50;9.20;;;;;;;27.10;41.23;98046.79;105858;1257;74173;-22
2023/07/20 10:23:38;;;;;;;6.30;3.90;;;;;;;27.51;42.42;98040.55;105911;1251;72660;-22
2023/07/20 10:26:05;;;;;;;4.30;3.00;;;;;;;27.71;40.55;98035.02;105762;1251;61098;-23
2023/07/20 10:28:32;;;;;;;6.30;4.00;;;;;;;27.86;40.71;98029.92;105899;1254;61162;-22
2023/07/20 10:30:59;;;;;;;5.00;3.00;;;;;;;27.96;39.85;98025.09;105982;1251;73830;-23
2023/07/20 10:33:27;;;;;;;3.80;2.40;;;;;;;27.87;39.35;98024.46;105921;1251;74271;-22
2023/07/20 10:35:57;;;;;;;4.00;1.80;;;;;;;27.48;41.07;98026.61;105941;1251;72486;-22
2023/07/20 10:38:53;;;;;;;4.50;2.40;;;;;;;27.34;41.41;98027.30;105843;1251;61565;-23
2023/07/20 10:41:39;;;;;;;5.70;3.40;;;;;;;27.43;41.97;98030.07;105906;1257;61109;-23
2023/07/20 10:44:07;;;;;;;2.30;1.90;;;;;;;27.62;42.85;98032.05;105745;1251;73628;-23
2023/07/20 10:46:38;;;;;;;5.70;3.30;;;;;;;27.64;41.65;98031.14;105784;1257;74437;-23
2023/07/20 10:49:07;;;;;;;8.70;7.00;;;;;;;27.16;41.09;98031.06;105927;1251;72695;-23
2023/07/20 10:51:42;;;;;;;42.50;39.00;;;;;;;26.87;41.87;98028.68;105968;1251;61061;-22
2023/07/20 10:54:32;;;;;;;45.20;41.10;;;;;;;26.73;41.68;98028.42;105754;1250;61111;-22
2023/07/20 10:57:24;;;;;;;31.00;28.10;;;;;;;26.67;42.62;98022.27;105885;1251;73948;-23
2023/07/20 10:59:51;;;;;;;13.50;11.10;;;;;;;26.48;42.03;98016.73;105923;1251;74319;-23
2023/07/20 11:02:19;;;;;;;6.90;6.20;;;;;;;26.40;42.96;98017.33;105906;1250;72605;-22
2023/07/20 11:04:47;;;;;;;5.70;3.90;;;;;;;26.48;44.29;98014.81;105972;1257;61285;-23
2023/07/20 11:07:36;;;;;;;7.40;4.60;;;;;;;26.54;44.37;98012.83;105776;1251;61151;-23
2023/07/20 11:10:31;;;;;;;5.80;4.60;;;;;;;26.47;44.29;98008.95;102717;1295;600247;-21
2023/07/20 11:13:18;;;;;;;5.70;3.30;;;;;;;26.18;43.99;98005.36;104819;1267;61075;-21
2023/07/20 11:15:59;;;;;;;11.40;10.30;;;;;;;25.87;44.27;98005.33;105520;1257;61056;-22
2023/07/20 11:18:26;;;;;;;5.50;3.60;;;;;;;25.70;45.09;98001.64;105442;1258;72185;-22
2023/07/20 11:20:54;;;;;;;5.50;4.20;;;;;;;25.73;45.36;97999.84;105553;1258;74715;-22
2023/07/20 11:23:22;;;;;;;5.80;3.70;;;;;;;25.72;45.87;97996.41;103605;1264;2657069;-22
2023/07/20 11:25:49;;;;;;;6.80;4.90;;;;;;;25.69;46.40;97996.33;105395;1260;61103;-22
2023/07/20 11:28:17;;;;;;;7.80;4.10;;;;;;;25.66;46.40;97989.15;105283;1256;61145;-22
2023/07/20 11:30:45;;;;;;;6.40;3.70;;;;;;;25.59;46.05;97983.00;105428;1261;71024;-22
2023/07/20 11:33:12;;;;;;;5.20;3.30;;;;;;;25.41;46.54;97971.86;105512;1256;76316;-22
2023/07/20 11:43:23;;;;;;;3.50;2.70;;;;;;;25.18;48.10;97952.12;102661;1296;600137;-22
2023/07/20 11:45:50;;;;;;;8.80;4.90;;;;;;;25.05;48.26;97948.94;105084;1269;61173;-23
2023/07/20 11:48:18;;;;;;;6.30;5.30;;;;;;;24.95;49.02;97946.77;104848;1270;61236;-23
2023/07/20 11:58:28;;;;;;;690.00;216.30;;;;;;;24.55;50.17;97960.61;102669;1291;599466;-22